sensor_id;sensor_type;location;lat;lon;timestamp;temperature;humidity
7654;DHT22;3869;48.406;10.774;2022-08-19T00:01:43;18.90;99.90
7654;DHT22;3869;48.406;10.774;2022-08-19T00:04:23;18.80;99.90
7654;DHT22;3869;48.406;10.774;2022-08-19T00:06:52;18.80;99.90
7654;DHT22;3869;48.406;10.774;2022-08-19T00:09:21;18.70;99.90
7654;DHT22;3869;48.406;10.774;2022-08-19T00:11:50;18.70;99.90
7654;DHT22;3869;48.406;10.774;2022-08-19T00:14:19;18.70;99.90
7654;DHT22;3869;48.406;10.774;2022-08-19T00:16:48;18.60;99.90
7654;DHT22;3869;48.406;10.774;2022-08-19T00:19:20;18.60;99.90
7654;DHT22;3869;48.406;10.774;2022-08-19T00:21:47;18.60;99.90
7654;DHT22;3869;48.406;10.774;2022-08-19T00:24:16;18.60;99.90
7654;DHT22;3869;48.406;10.774;2022-08-19T00:26:44;18.60;99.90
7654;DHT22;3869;48.406;10.774;2022-08-19T00:29:15;18.70;99.90
7654;DHT22;3869;48.406;10.774;2022-08-19T00:31:43;18.70;99.90
7654;DHT22;3869;48.406;10.774;2022-08-19T00:34:13;18.70;99.90
7654;DHT22;3869;48.406;10.774;2022-08-19T00:36:43;18.70;99.90
7654;DHT22;3869;48.406;10.774;2022-08-19T00:39:12;18.70;99.90
7654;DHT22;3869;48.406;10.774;2022-08-19T00:41:40;18.70;99.90
7654;DHT22;3869;48.406;10.774;2022-08-19T00:44:14;18.70;99.90
7654;DHT22;3869;48.406;10.774;2022-08-19T00:46:44;18.70;99.90
7654;DHT22;3869;48.406;10.774;2022-08-19T00:49:28;18.80;99.90
7654;DHT22;3869;48.406;10.774;2022-08-19T00:52:01;18.80;99.90
7654;DHT22;3869;48.406;10.774;2022-08-19T00:54:30;18.80;99.90
7654;DHT22;3869;48.406;10.774;2022-08-19T00:57:00;18.80;99.90
7654;DHT22;3869;48.406;10.774;2022-08-19T00:59:29;18.70;99.90
7654;DHT22;3869;48.406;10.774;2022-08-19T01:02:18;18.70;99.90
7654;DHT22;3869;48.406;10.774;2022-08-19T01:04:46;18.60;99.90
7654;DHT22;3869;48.406;10.774;2022-08-19T01:07:16;18.60;99.90
7654;DHT22;3869;48.406;10.774;2022-08-19T01:09:45;18.60;99.90
7654;DHT22;3869;48.406;10.774;2022-08-19T01:12:14;18.60;99.90
7654;DHT22;3869;48.406;10.774;2022-08-19T01:14:42;18.60;99.90
7654;DHT22;3869;48.406;10.774;2022-08-19T01:17:12;18.60;99.90
7654;DHT22;3869;48.406;10.774;2022-08-19T01:19:41;18.60;99.90
7654;DHT22;3869;48.406;10.774;2022-08-19T01:22:13;18.60;99.90
7654;DHT22;3869;48.406;10.774;2022-08-19T01:24:44;18.60;99.90
7654;DHT22;3869;48.406;10.774;2022-08-19T01:27:16;18.70;99.90
7654;DHT22;3869;48.406;10.774;2022-08-19T01:29:46;18.70;99.90
7654;DHT22;3869;48.406;10.774;2022-08-19T01:32:16;18.60;99.90
7654;DHT22;3869;48.406;10.774;2022-08-19T01:35:00;18.60;99.90
7654;DHT22;3869;48.406;10.774;2022-08-19T01:37:30;18.60;99.90
7654;DHT22;3869;48.406;10.774;2022-08-19T01:39:59;18.60;99.90
7654;DHT22;3869;48.406;10.774;2022-08-19T01:42:32;18.70;99.90
7654;DHT22;3869;48.406;10.774;2022-08-19T01:44:59;18.60;99.90
7654;DHT22;3869;48.406;10.774;2022-08-19T01:47:28;18.70;99.90
7654;DHT22;3869;48.406;10.774;2022-08-19T01:49:58;18.70;99.90
7654;DHT22;3869;48.406;10.774;2022-08-19T01:52:26;18.70;99.90
7654;DHT22;3869;48.406;10.774;2022-08-19T01:54:54;18.70;99.90
7654;DHT22;3869;48.406;10.774;2022-08-19T01:57:23;18.70;99.90
7654;DHT22;3869;48.406;10.774;2022-08-19T01:59:52;18.70;99.90
7654;DHT22;3869;48.406;10.774;2022-08-19T02:02:20;18.60;99.90
7654;DHT22;3869;48.406;10.774;2022-08-19T02:04:48;18.50;99.90
7654;DHT22;3869;48.406;10.774;2022-08-19T02:07:19;18.50;99.90
7654;DHT22;3869;48.406;10.774;2022-08-19T02:09:47;18.50;99.90
7654;DHT22;3869;48.406;10.774;2022-08-19T02:12:15;18.50;99.90
7654;DHT22;3869;48.406;10.774;2022-08-19T02:14:45;18.60;99.90
7654;DHT22;3869;48.406;10.774;2022-08-19T02:17:13;18.60;99.90
7654;DHT22;3869;48.406;10.774;2022-08-19T02:19:41;18.60;99.90
7654;DHT22;3869;48.406;10.774;2022-08-19T02:22:09;18.60;99.90
7654;DHT22;3869;48.406;10.774;2022-08-19T02:24:37;18.60;99.90
7654;DHT22;3869;48.406;10.774;2022-08-19T02:27:05;18.60;99.90
7654;DHT22;3869;48.406;10.774;2022-08-19T02:29:33;18.60;99.90
7654;DHT22;3869;48.406;10.774;2022-08-19T02:32:03;18.70;99.90
7654;DHT22;3869;48.406;10.774;2022-08-19T02:34:31;18.70;99.90
7654;DHT22;3869;48.406;10.774;2022-08-19T02:36:59;18.70;99.90
7654;DHT22;3869;48.406;10.774;2022-08-19T02:39:29;18.60;99.90
7654;DHT22;3869;48.406;10.774;2022-08-19T02:41:56;18.60;99.90
7654;DHT22;3869;48.406;10.774;2022-08-19T02:44:26;18.60;99.90
7654;DHT22;3869;48.406;10.774;2022-08-19T02:46:57;18.50;99.90
7654;DHT22;3869;48.406;10.774;2022-08-19T02:49:27;18.50;99.90
7654;DHT22;3869;48.406;10.774;2022-08-19T02:52:00;18.50;99.90
7654;DHT22;3869;48.406;10.774;2022-08-19T02:54:29;18.50;99.90
7654;DHT22;3869;48.406;10.774;2022-08-19T02:56:56;18.60;99.90
7654;DHT22;3869;48.406;10.774;2022-08-19T02:59:25;18.60;99.90
7654;DHT22;3869;48.406;10.774;2022-08-19T03:01:53;18.60;99.90
7654;DHT22;3869;48.406;10.774;2022-08-19T03:04:21;18.60;99.90
7654;DHT22;3869;48.406;10.774;2022-08-19T03:06:51;18.60;99.90
7654;DHT22;3869;48.406;10.774;2022-08-19T03:09:20;18.70;99.90
7654;DHT22;3869;48.406;10.774;2022-08-19T03:11:48;18.70;99.90
7654;DHT22;3869;48.406;10.774;2022-08-19T03:14:18;18.70;99.90
7654;DHT22;3869;48.406;10.774;2022-08-19T03:16:49;18.70;99.90
7654;DHT22;3869;48.406;10.774;2022-08-19T03:19:19;18.70;99.90
7654;DHT22;3869;48.406;10.774;2022-08-19T03:21:48;18.70;99.90
7654;DHT22;3869;48.406;10.774;2022-08-19T03:24:18;18.70;99.90
7654;DHT22;3869;48.406;10.774;2022-08-19T03:26:48;18.70;99.90
7654;DHT22;3869;48.406;10.774;2022-08-19T03:29:17;18.70;99.90
7654;DHT22;3869;48.406;10.774;2022-08-19T03:31:57;18.70;99.90
7654;DHT22;3869;48.406;10.774;2022-08-19T03:34:29;18.70;99.90
7654;DHT22;3869;48.406;10.774;2022-08-19T03:36:59;18.70;99.90
7654;DHT22;3869;48.406;10.774;2022-08-19T03:39:29;18.70;99.90
7654;DHT22;3869;48.406;10.774;2022-08-19T03:41:57;18.70;99.90
7654;DHT22;3869;48.406;10.774;2022-08-19T03:44:46;18.70;99.90
7654;DHT22;3869;48.406;10.774;2022-08-19T03:47:14;18.70;99.90
7654;DHT22;3869;48.406;10.774;2022-08-19T03:49:44;18.70;99.90
7654;DHT22;3869;48.406;10.774;2022-08-19T03:52:12;18.70;99.90
7654;DHT22;3869;48.406;10.774;2022-08-19T03:54:42;18.70;99.90
7654;DHT22;3869;48.406;10.774;2022-08-19T03:57:10;18.70;99.90
7654;DHT22;3869;48.406;10.774;2022-08-19T03:59:38;18.70;99.90
7654;DHT22;3869;48.406;10.774;2022-08-19T04:02:09;18.70;99.90
7654;DHT22;3869;48.406;10.774;2022-08-19T04:04:38;18.70;99.90
7654;DHT22;3869;48.406;10.774;2022-08-19T04:07:08;18.70;99.90
7654;DHT22;3869;48.406;10.774;2022-08-19T04:09:36;18.70;99.90
7654;DHT22;3869;48.406;10.774;2022-08-19T04:12:06;18.60;99.90
7654;DHT22;3869;48.406;10.774;2022-08-19T04:14:35;18.60;99.90
7654;DHT22;3869;48.406;10.774;2022-08-19T04:17:04;18.60;99.90
7654;DHT22;3869;48.406;10.774;2022-08-19T04:19:33;18.60;99.90
7654;DHT22;3869;48.406;10.774;2022-08-19T04:22:01;18.60;99.90
7654;DHT22;3869;48.406;10.774;2022-08-19T04:24:30;18.50;99.90
7654;DHT22;3869;48.406;10.774;2022-08-19T04:26:59;18.50;99.90
7654;DHT22;3869;48.406;10.774;2022-08-19T04:29:28;18.50;99.90
7654;DHT22;3869;48.406;10.774;2022-08-19T04:31:57;18.40;99.90
7654;DHT22;3869;48.406;10.774;2022-08-19T04:34:35;18.40;99.90
7654;DHT22;3869;48.406;10.774;2022-08-19T04:37:23;18.50;99.90
7654;DHT22;3869;48.406;10.774;2022-08-19T04:39:55;18.50;99.90
7654;DHT22;3869;48.406;10.774;2022-08-19T04:42:40;18.50;99.90
7654;DHT22;3869;48.406;10.774;2022-08-19T04:45:11;18.40;99.90
7654;DHT22;3869;48.406;10.774;2022-08-19T04:47:42;18.40;99.90
7654;DHT22;3869;48.406;10.774;2022-08-19T04:50:24;18.40;99.90
7654;DHT22;3869;48.406;10.774;2022-08-19T04:52:52;18.40;99.90
7654;DHT22;3869;48.406;10.774;2022-08-19T04:55:22;18.50;99.90
7654;DHT22;3869;48.406;10.774;2022-08-19T04:57:52;18.50;99.90
7654;DHT22;3869;48.406;10.774;2022-08-19T05:00:21;18.50;99.90
7654;DHT22;3869;48.406;10.774;2022-08-19T05:02:49;18.50;99.90
7654;DHT22;3869;48.406;10.774;2022-08-19T05:05:17;18.50;99.90
7654;DHT22;3869;48.406;10.774;2022-08-19T05:07:46;18.60;99.90
7654;DHT22;3869;48.406;10.774;2022-08-19T05:10:14;18.60;99.90
7654;DHT22;3869;48.406;10.774;2022-08-19T05:12:42;18.60;99.90
7654;DHT22;3869;48.406;10.774;2022-08-19T05:15:10;18.60;99.90
7654;DHT22;3869;48.406;10.774;2022-08-19T05:17:39;18.60;99.90
7654;DHT22;3869;48.406;10.774;2022-08-19T05:20:28;18.60;99.90
7654;DHT22;3869;48.406;10.774;2022-08-19T05:23:14;18.60;99.90
7654;DHT22;3869;48.406;10.774;2022-08-19T05:25:48;18.60;99.90
7654;DHT22;3869;48.406;10.774;2022-08-19T05:28:17;18.70;99.90
7654;DHT22;3869;48.406;10.774;2022-08-19T05:30:45;18.60;99.90
7654;DHT22;3869;48.406;10.774;2022-08-19T05:33:16;18.60;99.90
7654;DHT22;3869;48.406;10.774;2022-08-19T05:35:44;18.60;99.90
7654;DHT22;3869;48.406;10.774;2022-08-19T05:38:12;18.70;99.90
7654;DHT22;3869;48.406;10.774;2022-08-19T05:40:40;18.70;99.90
7654;DHT22;3869;48.406;10.774;2022-08-19T05:43:14;18.70;99.90
7654;DHT22;3869;48.406;10.774;2022-08-19T05:45:43;18.70;99.90
7654;DHT22;3869;48.406;10.774;2022-08-19T05:48:12;18.80;99.90
7654;DHT22;3869;48.406;10.774;2022-08-19T05:50:42;18.80;99.90
7654;DHT22;3869;48.406;10.774;2022-08-19T05:53:12;18.80;99.90
7654;DHT22;3869;48.406;10.774;2022-08-19T05:55:40;18.80;99.90
7654;DHT22;3869;48.406;10.774;2022-08-19T05:58:09;18.80;99.90
7654;DHT22;3869;48.406;10.774;2022-08-19T06:00:38;18.80;99.90
7654;DHT22;3869;48.406;10.774;2022-08-19T06:03:06;18.80;99.90
7654;DHT22;3869;48.406;10.774;2022-08-19T06:05:38;18.80;99.90
7654;DHT22;3869;48.406;10.774;2022-08-19T06:08:19;18.80;99.90
7654;DHT22;3869;48.406;10.774;2022-08-19T06:11:13;18.80;99.90
7654;DHT22;3869;48.406;10.774;2022-08-19T06:13:42;18.80;99.90
7654;DHT22;3869;48.406;10.774;2022-08-19T06:16:11;18.80;99.90
7654;DHT22;3869;48.406;10.774;2022-08-19T06:18:39;18.80;99.90
7654;DHT22;3869;48.406;10.774;2022-08-19T06:21:07;18.80;99.90
7654;DHT22;3869;48.406;10.774;2022-08-19T06:23:36;18.80;99.90
7654;DHT22;3869;48.406;10.774;2022-08-19T06:26:05;18.80;99.90
7654;DHT22;3869;48.406;10.774;2022-08-19T06:28:34;18.80;99.90
7654;DHT22;3869;48.406;10.774;2022-08-19T06:31:06;18.90;99.90
7654;DHT22;3869;48.406;10.774;2022-08-19T06:33:34;18.90;99.90
7654;DHT22;3869;48.406;10.774;2022-08-19T06:36:02;18.90;99.90
7654;DHT22;3869;48.406;10.774;2022-08-19T06:38:31;18.90;99.90
7654;DHT22;3869;48.406;10.774;2022-08-19T06:41:03;18.90;99.90
7654;DHT22;3869;48.406;10.774;2022-08-19T06:43:34;18.90;99.90
7654;DHT22;3869;48.406;10.774;2022-08-19T06:46:10;18.90;99.90
7654;DHT22;3869;48.406;10.774;2022-08-19T06:48:40;18.90;99.90
7654;DHT22;3869;48.406;10.774;2022-08-19T06:51:12;18.90;99.90
7654;DHT22;3869;48.406;10.774;2022-08-19T06:53:45;18.90;99.90
7654;DHT22;3869;48.406;10.774;2022-08-19T06:56:17;18.90;99.90
7654;DHT22;3869;48.406;10.774;2022-08-19T06:58:45;18.90;99.90
7654;DHT22;3869;48.406;10.774;2022-08-19T07:01:13;19.00;99.90
7654;DHT22;3869;48.406;10.774;2022-08-19T07:03:41;19.00;99.90
7654;DHT22;3869;48.406;10.774;2022-08-19T07:06:11;18.90;99.90
7654;DHT22;3869;48.406;10.774;2022-08-19T07:09:02;18.90;99.90
7654;DHT22;3869;48.406;10.774;2022-08-19T07:11:32;18.90;99.90
7654;DHT22;3869;48.406;10.774;2022-08-19T07:14:00;18.90;99.90
7654;DHT22;3869;48.406;10.774;2022-08-19T07:16:29;18.90;99.90
7654;DHT22;3869;48.406;10.774;2022-08-19T07:18:58;18.90;99.90
7654;DHT22;3869;48.406;10.774;2022-08-19T07:21:38;18.90;99.90
7654;DHT22;3869;48.406;10.774;2022-08-19T07:24:06;18.90;99.90
7654;DHT22;3869;48.406;10.774;2022-08-19T07:26:40;18.90;99.90
7654;DHT22;3869;48.406;10.774;2022-08-19T07:29:10;18.90;99.90
7654;DHT22;3869;48.406;10.774;2022-08-19T07:31:39;18.90;99.90
7654;DHT22;3869;48.406;10.774;2022-08-19T07:34:11;19.00;99.90
7654;DHT22;3869;48.406;10.774;2022-08-19T07:36:43;19.00;99.90
7654;DHT22;3869;48.406;10.774;2022-08-19T07:39:13;18.90;99.90
7654;DHT22;3869;48.406;10.774;2022-08-19T07:41:43;18.90;99.90
7654;DHT22;3869;48.406;10.774;2022-08-19T07:44:12;18.80;99.90
7654;DHT22;3869;48.406;10.774;2022-08-19T07:46:45;18.80;99.90
7654;DHT22;3869;48.406;10.774;2022-08-19T07:49:17;18.90;99.90
7654;DHT22;3869;48.406;10.774;2022-08-19T07:51:47;18.80;99.90
7654;DHT22;3869;48.406;10.774;2022-08-19T07:54:15;18.80;99.90
7654;DHT22;3869;48.406;10.774;2022-08-19T07:56:44;18.80;99.90
7654;DHT22;3869;48.406;10.774;2022-08-19T07:59:12;18.80;99.90
7654;DHT22;3869;48.406;10.774;2022-08-19T08:01:40;18.80;99.90
7654;DHT22;3869;48.406;10.774;2022-08-19T08:04:08;18.80;99.90
7654;DHT22;3869;48.406;10.774;2022-08-19T08:06:53;18.80;99.90
7654;DHT22;3869;48.406;10.774;2022-08-19T08:09:42;18.80;99.90
7654;DHT22;3869;48.406;10.774;2022-08-19T08:12:19;18.90;99.90
7654;DHT22;3869;48.406;10.774;2022-08-19T08:15:05;18.90;99.90
7654;DHT22;3869;48.406;10.774;2022-08-19T08:17:38;18.90;99.90
7654;DHT22;3869;48.406;10.774;2022-08-19T08:20:17;18.80;99.90
7654;DHT22;3869;48.406;10.774;2022-08-19T08:22:46;18.80;99.90
7654;DHT22;3869;48.406;10.774;2022-08-19T08:25:32;18.80;99.90
7654;DHT22;3869;48.406;10.774;2022-08-19T08:28:04;18.80;99.90
7654;DHT22;3869;48.406;10.774;2022-08-19T08:30:43;18.80;99.90
7654;DHT22;3869;48.406;10.774;2022-08-19T08:33:13;18.80;99.90
7654;DHT22;3869;48.406;10.774;2022-08-19T08:35:42;18.80;99.90
7654;DHT22;3869;48.406;10.774;2022-08-19T08:38:10;18.80;99.90
7654;DHT22;3869;48.406;10.774;2022-08-19T08:40:43;18.80;99.90
7654;DHT22;3869;48.406;10.774;2022-08-19T08:43:22;18.80;99.90
7654;DHT22;3869;48.406;10.774;2022-08-19T08:45:55;18.80;99.90
7654;DHT22;3869;48.406;10.774;2022-08-19T08:48:32;18.80;99.90
7654;DHT22;3869;48.406;10.774;2022-08-19T08:51:05;18.80;99.90
7654;DHT22;3869;48.406;10.774;2022-08-19T08:53:35;18.90;99.90
7654;DHT22;3869;48.406;10.774;2022-08-19T08:56:10;18.90;99.90
7654;DHT22;3869;48.406;10.774;2022-08-19T08:58:50;18.90;99.90
7654;DHT22;3869;48.406;10.774;2022-08-19T09:01:20;18.90;99.90
7654;DHT22;3869;48.406;10.774;2022-08-19T09:03:49;18.90;99.90
7654;DHT22;3869;48.406;10.774;2022-08-19T09:06:24;18.90;99.90
7654;DHT22;3869;48.406;10.774;2022-08-19T09:09:00;18.80;99.90
7654;DHT22;3869;48.406;10.774;2022-08-19T09:11:48;18.80;99.90
7654;DHT22;3869;48.406;10.774;2022-08-19T09:14:30;18.80;99.90
7654;DHT22;3869;48.406;10.774;2022-08-19T09:17:17;18.80;99.90
7654;DHT22;3869;48.406;10.774;2022-08-19T09:19:51;18.80;99.90
7654;DHT22;3869;48.406;10.774;2022-08-19T09:22:19;18.80;99.90
7654;DHT22;3869;48.406;10.774;2022-08-19T09:24:52;18.90;99.90
7654;DHT22;3869;48.406;10.774;2022-08-19T09:27:22;18.90;99.90
7654;DHT22;3869;48.406;10.774;2022-08-19T09:30:12;18.90;99.90
7654;DHT22;3869;48.406;10.774;2022-08-19T09:32:41;19.00;99.90
7654;DHT22;3869;48.406;10.774;2022-08-19T09:35:10;19.00;99.90
7654;DHT22;3869;48.406;10.774;2022-08-19T09:37:39;19.00;99.90
7654;DHT22;3869;48.406;10.774;2022-08-19T09:40:09;19.00;99.90
7654;DHT22;3869;48.406;10.774;2022-08-19T09:42:38;19.00;99.90
7654;DHT22;3869;48.406;10.774;2022-08-19T09:45:20;18.90;99.90
7654;DHT22;3869;48.406;10.774;2022-08-19T09:47:50;18.90;99.90
7654;DHT22;3869;48.406;10.774;2022-08-19T09:50:21;18.90;99.90
7654;DHT22;3869;48.406;10.774;2022-08-19T09:52:49;19.00;99.90
7654;DHT22;3869;48.406;10.774;2022-08-19T09:55:23;19.00;99.90
7654;DHT22;3869;48.406;10.774;2022-08-19T09:57:58;19.00;99.90
7654;DHT22;3869;48.406;10.774;2022-08-19T10:00:28;19.00;99.90
7654;DHT22;3869;48.406;10.774;2022-08-19T10:02:56;18.90;99.90
7654;DHT22;3869;48.406;10.774;2022-08-19T10:05:24;18.90;99.90
7654;DHT22;3869;48.406;10.774;2022-08-19T10:08:15;18.90;99.90
7654;DHT22;3869;48.406;10.774;2022-08-19T10:10:43;18.80;99.90
7654;DHT22;3869;48.406;10.774;2022-08-19T10:13:14;18.80;99.90
7654;DHT22;3869;48.406;10.774;2022-08-19T10:15:44;18.80;99.90
7654;DHT22;3869;48.406;10.774;2022-08-19T10:18:15;18.70;99.90
7654;DHT22;3869;48.406;10.774;2022-08-19T10:20:45;18.80;99.90
7654;DHT22;3869;48.406;10.774;2022-08-19T10:23:18;18.70;99.90
7654;DHT22;3869;48.406;10.774;2022-08-19T10:25:47;18.60;99.90
7654;DHT22;3869;48.406;10.774;2022-08-19T10:28:15;18.70;99.90
7654;DHT22;3869;48.406;10.774;2022-08-19T10:30:46;18.70;99.90
7654;DHT22;3869;48.406;10.774;2022-08-19T10:33:15;18.70;99.90
7654;DHT22;3869;48.406;10.774;2022-08-19T10:36:05;18.70;99.90
7654;DHT22;3869;48.406;10.774;2022-08-19T10:38:33;18.70;99.90
7654;DHT22;3869;48.406;10.774;2022-08-19T10:41:09;18.70;99.90
7654;DHT22;3869;48.406;10.774;2022-08-19T10:43:38;18.70;99.90
7654;DHT22;3869;48.406;10.774;2022-08-19T10:46:09;18.60;99.90
7654;DHT22;3869;48.406;10.774;2022-08-19T10:48:43;18.60;99.90
7654;DHT22;3869;48.406;10.774;2022-08-19T10:51:11;18.60;99.90
7654;DHT22;3869;48.406;10.774;2022-08-19T10:53:58;18.50;99.90
7654;DHT22;3869;48.406;10.774;2022-08-19T10:56:28;18.40;99.90
7654;DHT22;3869;48.406;10.774;2022-08-19T10:59:14;18.40;99.90
7654;DHT22;3869;48.406;10.774;2022-08-19T11:01:45;18.30;99.90
7654;DHT22;3869;48.406;10.774;2022-08-19T11:04:17;18.30;99.90
7654;DHT22;3869;48.406;10.774;2022-08-19T11:06:46;18.20;99.90
7654;DHT22;3869;48.406;10.774;2022-08-19T11:09:15;18.20;99.90
7654;DHT22;3869;48.406;10.774;2022-08-19T11:11:44;18.20;99.90
7654;DHT22;3869;48.406;10.774;2022-08-19T11:14:17;18.30;99.90
7654;DHT22;3869;48.406;10.774;2022-08-19T11:16:48;18.30;99.90
7654;DHT22;3869;48.406;10.774;2022-08-19T11:19:17;18.40;99.90
7654;DHT22;3869;48.406;10.774;2022-08-19T11:21:48;18.40;99.90
7654;DHT22;3869;48.406;10.774;2022-08-19T11:24:18;18.50;99.90
7654;DHT22;3869;48.406;10.774;2022-08-19T11:26:47;18.50;99.90
7654;DHT22;3869;48.406;10.774;2022-08-19T11:29:18;18.50;99.90
7654;DHT22;3869;48.406;10.774;2022-08-19T11:31:49;18.50;99.90
7654;DHT22;3869;48.406;10.774;2022-08-19T11:34:20;18.50;99.90
7654;DHT22;3869;48.406;10.774;2022-08-19T11:36:50;18.40;99.90
7654;DHT22;3869;48.406;10.774;2022-08-19T11:39:20;18.40;99.90
7654;DHT22;3869;48.406;10.774;2022-08-19T11:41:48;18.40;99.90
7654;DHT22;3869;48.406;10.774;2022-08-19T11:44:16;18.40;99.90
7654;DHT22;3869;48.406;10.774;2022-08-19T11:46:45;18.40;99.90
7654;DHT22;3869;48.406;10.774;2022-08-19T11:49:16;18.30;99.90
7654;DHT22;3869;48.406;10.774;2022-08-19T11:51:46;18.20;99.90
7654;DHT22;3869;48.406;10.774;2022-08-19T11:54:15;18.10;99.90
7654;DHT22;3869;48.406;10.774;2022-08-19T11:56:44;18.10;99.90
7654;DHT22;3869;48.406;10.774;2022-08-19T11:59:12;18.10;99.90
7654;DHT22;3869;48.406;10.774;2022-08-19T12:01:41;18.20;99.90
7654;DHT22;3869;48.406;10.774;2022-08-19T12:04:10;18.20;99.90
7654;DHT22;3869;48.406;10.774;2022-08-19T12:06:41;18.30;99.90
7654;DHT22;3869;48.406;10.774;2022-08-19T12:09:10;18.30;99.90
7654;DHT22;3869;48.406;10.774;2022-08-19T12:11:38;18.20;99.90
7654;DHT22;3869;48.406;10.774;2022-08-19T12:14:10;18.20;99.90
7654;DHT22;3869;48.406;10.774;2022-08-19T12:16:40;18.20;99.90
7654;DHT22;3869;48.406;10.774;2022-08-19T12:19:20;18.10;99.90
7654;DHT22;3869;48.406;10.774;2022-08-19T12:21:50;18.00;99.90
7654;DHT22;3869;48.406;10.774;2022-08-19T12:24:19;17.90;99.90
7654;DHT22;3869;48.406;10.774;2022-08-19T12:26:50;17.90;99.90
7654;DHT22;3869;48.406;10.774;2022-08-19T12:29:20;17.90;99.90
7654;DHT22;3869;48.406;10.774;2022-08-19T12:31:55;18.00;99.90
7654;DHT22;3869;48.406;10.774;2022-08-19T12:34:28;18.10;99.90
7654;DHT22;3869;48.406;10.774;2022-08-19T12:37:02;18.10;99.90
7654;DHT22;3869;48.406;10.774;2022-08-19T12:39:34;18.10;99.90
7654;DHT22;3869;48.406;10.774;2022-08-19T12:42:03;18.10;99.90
7654;DHT22;3869;48.406;10.774;2022-08-19T12:44:31;18.20;99.90
7654;DHT22;3869;48.406;10.774;2022-08-19T12:47:00;18.20;99.90
7654;DHT22;3869;48.406;10.774;2022-08-19T12:49:31;18.20;99.90
7654;DHT22;3869;48.406;10.774;2022-08-19T12:52:22;18.20;99.90
7654;DHT22;3869;48.406;10.774;2022-08-19T12:54:51;18.10;99.90
7654;DHT22;3869;48.406;10.774;2022-08-19T12:57:21;18.20;99.90
7654;DHT22;3869;48.406;10.774;2022-08-19T12:59:59;18.10;99.90
7654;DHT22;3869;48.406;10.774;2022-08-19T13:02:31;18.20;99.90
7654;DHT22;3869;48.406;10.774;2022-08-19T13:05:06;18.20;99.90
7654;DHT22;3869;48.406;10.774;2022-08-19T13:07:37;18.20;99.90
7654;DHT22;3869;48.406;10.774;2022-08-19T13:10:07;18.30;99.90
7654;DHT22;3869;48.406;10.774;2022-08-19T13:12:36;18.30;99.90
7654;DHT22;3869;48.406;10.774;2022-08-19T13:15:05;18.40;99.90
7654;DHT22;3869;48.406;10.774;2022-08-19T13:17:37;18.40;99.90
7654;DHT22;3869;48.406;10.774;2022-08-19T13:20:07;18.40;99.90
7654;DHT22;3869;48.406;10.774;2022-08-19T13:22:38;18.40;99.90
7654;DHT22;3869;48.406;10.774;2022-08-19T13:25:08;18.50;99.90
7654;DHT22;3869;48.406;10.774;2022-08-19T13:27:36;18.50;99.90
7654;DHT22;3869;48.406;10.774;2022-08-19T13:30:06;18.40;99.90
7654;DHT22;3869;48.406;10.774;2022-08-19T13:32:52;18.50;99.90
7654;DHT22;3869;48.406;10.774;2022-08-19T13:35:44;18.40;99.90
7654;DHT22;3869;48.406;10.774;2022-08-19T13:38:15;18.40;99.90
7654;DHT22;3869;48.406;10.774;2022-08-19T13:40:44;18.50;99.90
7654;DHT22;3869;48.406;10.774;2022-08-19T13:43:13;18.50;99.90
7654;DHT22;3869;48.406;10.774;2022-08-19T13:45:49;18.40;99.90
7654;DHT22;3869;48.406;10.774;2022-08-19T13:48:19;18.40;99.90
7654;DHT22;3869;48.406;10.774;2022-08-19T13:50:47;18.50;99.90
7654;DHT22;3869;48.406;10.774;2022-08-19T13:53:17;18.40;99.90
7654;DHT22;3869;48.406;10.774;2022-08-19T13:55:45;18.50;99.90
7654;DHT22;3869;48.406;10.774;2022-08-19T13:58:13;18.50;99.90
7654;DHT22;3869;48.406;10.774;2022-08-19T14:00:43;18.50;99.90
7654;DHT22;3869;48.406;10.774;2022-08-19T14:03:12;18.40;99.90
7654;DHT22;3869;48.406;10.774;2022-08-19T14:05:41;18.40;99.90
7654;DHT22;3869;48.406;10.774;2022-08-19T14:08:09;18.40;99.90
7654;DHT22;3869;48.406;10.774;2022-08-19T14:10:39;18.40;99.90
7654;DHT22;3869;48.406;10.774;2022-08-19T14:13:07;18.50;99.90
7654;DHT22;3869;48.406;10.774;2022-08-19T14:15:35;18.50;99.90
7654;DHT22;3869;48.406;10.774;2022-08-19T14:18:03;18.40;99.90
7654;DHT22;3869;48.406;10.774;2022-08-19T14:20:33;18.40;99.90
7654;DHT22;3869;48.406;10.774;2022-08-19T14:23:02;18.40;99.90
7654;DHT22;3869;48.406;10.774;2022-08-19T14:25:31;18.40;99.90
7654;DHT22;3869;48.406;10.774;2022-08-19T14:28:02;18.40;99.90
7654;DHT22;3869;48.406;10.774;2022-08-19T14:30:33;18.40;99.90
7654;DHT22;3869;48.406;10.774;2022-08-19T14:33:02;18.40;99.90
7654;DHT22;3869;48.406;10.774;2022-08-19T14:35:31;18.40;99.90
7654;DHT22;3869;48.406;10.774;2022-08-19T14:38:01;18.40;99.90
7654;DHT22;3869;48.406;10.774;2022-08-19T14:40:30;18.40;99.90
7654;DHT22;3869;48.406;10.774;2022-08-19T14:43:02;18.40;99.90
7654;DHT22;3869;48.406;10.774;2022-08-19T14:45:34;18.40;99.90
7654;DHT22;3869;48.406;10.774;2022-08-19T14:48:03;18.40;99.90
7654;DHT22;3869;48.406;10.774;2022-08-19T14:50:32;18.40;99.90
7654;DHT22;3869;48.406;10.774;2022-08-19T14:53:02;18.40;99.90
7654;DHT22;3869;48.406;10.774;2022-08-19T14:55:41;18.40;99.90
7654;DHT22;3869;48.406;10.774;2022-08-19T14:58:11;18.40;99.90
7654;DHT22;3869;48.406;10.774;2022-08-19T15:00:57;18.40;99.90
7654;DHT22;3869;48.406;10.774;2022-08-19T15:03:25;18.40;99.90
7654;DHT22;3869;48.406;10.774;2022-08-19T15:05:53;18.40;99.90
7654;DHT22;3869;48.406;10.774;2022-08-19T15:08:23;18.50;99.90
7654;DHT22;3869;48.406;10.774;2022-08-19T15:10:51;18.50;99.90
7654;DHT22;3869;48.406;10.774;2022-08-19T15:13:21;18.50;99.90
7654;DHT22;3869;48.406;10.774;2022-08-19T15:15:49;18.50;99.90
7654;DHT22;3869;48.406;10.774;2022-08-19T15:18:18;18.50;99.90
7654;DHT22;3869;48.406;10.774;2022-08-19T15:20:47;18.40;99.90
7654;DHT22;3869;48.406;10.774;2022-08-19T15:23:16;18.40;99.90
7654;DHT22;3869;48.406;10.774;2022-08-19T15:25:45;18.40;99.90
7654;DHT22;3869;48.406;10.774;2022-08-19T15:28:13;18.40;99.90
7654;DHT22;3869;48.406;10.774;2022-08-19T15:30:44;18.40;99.90
7654;DHT22;3869;48.406;10.774;2022-08-19T15:33:12;18.40;99.90
7654;DHT22;3869;48.406;10.774;2022-08-19T15:35:42;18.40;99.90
7654;DHT22;3869;48.406;10.774;2022-08-19T15:38:10;18.40;99.90
7654;DHT22;3869;48.406;10.774;2022-08-19T15:40:40;18.40;99.90
7654;DHT22;3869;48.406;10.774;2022-08-19T15:43:08;18.40;99.90
7654;DHT22;3869;48.406;10.774;2022-08-19T15:45:36;18.50;99.90
7654;DHT22;3869;48.406;10.774;2022-08-19T15:48:07;18.50;99.90
7654;DHT22;3869;48.406;10.774;2022-08-19T15:50:35;18.40;99.90
7654;DHT22;3869;48.406;10.774;2022-08-19T15:53:07;18.40;99.90
7654;DHT22;3869;48.406;10.774;2022-08-19T15:55:36;18.40;99.90
7654;DHT22;3869;48.406;10.774;2022-08-19T15:58:08;18.30;99.90
7654;DHT22;3869;48.406;10.774;2022-08-19T16:00:56;18.30;99.90
7654;DHT22;3869;48.406;10.774;2022-08-19T16:03:44;18.30;99.90
7654;DHT22;3869;48.406;10.774;2022-08-19T16:06:37;18.30;99.90
7654;DHT22;3869;48.406;10.774;2022-08-19T16:09:05;18.30;99.90
7654;DHT22;3869;48.406;10.774;2022-08-19T16:11:34;18.30;99.90